createdAt,value
2022-11-29T00:01:07.069Z,9.25
2022-11-29T00:03:35.752Z,9.57
2022-11-29T00:06:07.697Z,9.15
2022-11-29T00:08:36.220Z,9.44
2022-11-29T00:11:07.044Z,9.60
2022-11-29T00:13:35.362Z,9.51
2022-11-29T00:16:05.022Z,9.41
2022-11-29T00:18:33.390Z,9.55
2022-11-29T00:21:06.664Z,9.38
2022-11-29T00:23:35.173Z,9.21
2022-11-29T00:26:08.395Z,9.10
2022-11-29T00:28:37.714Z,9.37
2022-11-29T00:31:15.440Z,9.14
2022-11-29T00:33:43.721Z,9.13
2022-11-29T00:36:11.970Z,9.20
2022-11-29T00:38:40.522Z,9.42
2022-11-29T00:41:10.629Z,9.39
2022-11-29T00:43:39.003Z,9.21
2022-11-29T00:46:08.991Z,9.12
2022-11-29T00:48:37.706Z,8.93
2022-11-29T00:51:06.978Z,8.91
2022-11-29T00:53:36.187Z,8.84
2022-11-29T00:56:04.958Z,9.09
2022-11-29T00:58:34.541Z,9.20
2022-11-29T01:01:02.824Z,9.08
2022-11-29T01:03:31.277Z,9.21
2022-11-29T01:06:02.851Z,8.88
2022-11-29T01:08:31.113Z,9.11
2022-11-29T01:11:06.456Z,9.08
2022-11-29T01:13:36.405Z,9.16
2022-11-29T01:16:05.479Z,8.94
2022-11-29T01:18:34.207Z,8.76
2022-11-29T01:21:04.755Z,9.22
2022-11-29T01:23:33.075Z,9.46
2022-11-29T01:26:02.792Z,9.20
2022-11-29T01:28:31.540Z,9.30
2022-11-29T01:31:01.195Z,9.51
2022-11-29T01:33:29.478Z,9.30
2022-11-29T01:35:57.694Z,9.37
2022-11-29T01:38:26.027Z,9.55
2022-11-29T01:40:59.319Z,9.49
2022-11-29T01:43:27.763Z,9.56
2022-11-29T01:45:56.143Z,9.38
2022-11-29T01:48:28.703Z,9.28
2022-11-29T01:51:00.206Z,8.89
2022-11-29T01:53:29.215Z,9.25
2022-11-29T01:56:02.173Z,8.86
2022-11-29T01:58:31.135Z,9.22
2022-11-29T02:00:59.577Z,8.90
2022-11-29T02:03:29.235Z,9.09
2022-11-29T02:05:57.523Z,8.93
2022-11-29T02:08:28.900Z,9.11
2022-11-29T02:11:13.934Z,9.14
2022-11-29T02:13:50.400Z,8.94
2022-11-29T02:16:23.783Z,9.00
2022-11-29T02:19:01.339Z,8.89
2022-11-29T02:21:37.641Z,8.78
2022-11-29T02:24:20.913Z,8.79
2022-11-29T02:27:07.282Z,8.79
2022-11-29T02:30:09.018Z,9.08
2022-11-29T02:33:18.855Z,8.65
2022-11-29T02:36:08.740Z,8.52
2022-11-29T02:38:57.242Z,8.81
2022-11-29T02:41:35.695Z,8.69
2022-11-29T02:44:30.216Z,9.04
2022-11-29T02:47:09.171Z,9.17
2022-11-29T02:49:55.249Z,8.98
2022-11-29T02:52:31.239Z,9.05
2022-11-29T02:55:06.263Z,9.24
2022-11-29T02:57:38.629Z,9.12
2022-11-29T03:00:10.560Z,9.04
2022-11-29T03:02:44.707Z,9.08
2022-11-29T03:05:20.405Z,8.92
2022-11-29T03:07:56.277Z,9.03
2022-11-29T03:10:32.201Z,8.89
2022-11-29T03:13:01.103Z,8.78
2022-11-29T03:15:31.399Z,8.94
2022-11-29T03:18:09.006Z,8.71
2022-11-29T03:20:50.564Z,8.90
2022-11-29T03:23:24.802Z,9.13
2022-11-29T03:25:57.057Z,9.01
2022-11-29T03:28:30.410Z,9.24
2022-11-29T03:31:03.269Z,8.96
2022-11-29T03:33:36.862Z,9.17
2022-11-29T03:36:11.617Z,9.24
2022-11-29T03:38:42.453Z,9.20
2022-11-29T03:41:19.917Z,9.17
2022-11-29T03:43:52.727Z,9.25
2022-11-29T03:46:26.377Z,9.03
2022-11-29T03:48:57.941Z,9.07
2022-11-29T03:51:38.943Z,9.28
2022-11-29T03:54:11.613Z,9.20
2022-11-29T03:56:41.450Z,9.31
2022-11-29T03:59:20.015Z,9.09
2022-11-29T04:02:27.087Z,8.97
2022-11-29T04:05:45.840Z,8.98
2022-11-29T04:08:49.611Z,8.96
2022-11-29T04:11:54.955Z,9.14
2022-11-29T04:14:35.927Z,8.85
2022-11-29T04:17:31.633Z,8.75
2022-11-29T04:20:39.702Z,8.77
2022-11-29T04:23:42.822Z,8.92
2022-11-29T04:26:34.688Z,8.71
2022-11-29T04:29:20.028Z,8.99
2022-11-29T04:32:04.791Z,8.92
2022-11-29T04:34:47.942Z,8.83
2022-11-29T04:37:27.927Z,8.80
2022-11-29T04:40:08.785Z,8.78
2022-11-29T04:43:00.439Z,8.78
2022-11-29T04:45:42.297Z,8.58
2022-11-29T04:48:33.633Z,8.58
2022-11-29T04:51:10.205Z,8.69
2022-11-29T04:53:50.636Z,9.06
2022-11-29T04:56:24.943Z,8.87
2022-11-29T04:58:56.827Z,9.18
2022-11-29T05:01:31.207Z,9.11
2022-11-29T05:04:03.996Z,9.05
2022-11-29T05:06:36.697Z,9.37
2022-11-29T05:09:11.979Z,9.27
2022-11-29T05:11:51.574Z,9.46
2022-11-29T05:14:31.236Z,9.14
2022-11-29T05:17:10.764Z,9.13
2022-11-29T05:19:52.965Z,9.31
2022-11-29T05:22:28.924Z,9.13
2022-11-29T05:25:03.891Z,9.32
2022-11-29T05:27:41.919Z,9.09
2022-11-29T05:30:14.548Z,9.13
2022-11-29T05:32:51.839Z,9.15
2022-11-29T05:35:52.658Z,9.06
2022-11-29T05:38:35.855Z,9.13
2022-11-29T05:41:16.038Z,9.14
2022-11-29T05:43:55.081Z,9.54
2022-11-29T05:46:30.590Z,9.79
2022-11-29T05:49:04.692Z,9.77
2022-11-29T05:51:41.718Z,9.95
2022-11-29T05:54:18.017Z,9.98
2022-11-29T05:56:54.561Z,9.37
2022-11-29T05:59:24.700Z,9.48
2022-11-29T06:01:59.259Z,9.65
2022-11-29T06:04:30.500Z,9.56
2022-11-29T06:07:04.426Z,9.49
2022-11-29T06:09:36.232Z,9.59
2022-11-29T06:12:06.849Z,9.44
2022-11-29T06:14:38.696Z,9.28
2022-11-29T06:17:38.874Z,9.60
2022-11-29T06:20:24.696Z,9.44
2022-11-29T06:23:16.859Z,9.56
2022-11-29T06:25:59.479Z,9.48
2022-11-29T06:28:42.839Z,9.33
2022-11-29T06:31:16.364Z,9.49
2022-11-29T06:33:51.719Z,9.77
2022-11-29T06:36:22.617Z,9.85
2022-11-29T06:38:51.343Z,9.83
2022-11-29T06:41:21.937Z,9.94
2022-11-29T06:43:50.530Z,10.01
2022-11-29T06:46:26.698Z,9.48
2022-11-29T06:49:02.340Z,9.68
2022-11-29T06:51:34.705Z,10.02
2022-11-29T06:54:13.816Z,9.94
2022-11-29T06:56:46.094Z,9.61
2022-11-29T06:59:27.602Z,9.40
2022-11-29T07:02:00.762Z,9.48
2022-11-29T07:04:50.670Z,9.86
2022-11-29T07:07:21.773Z,9.72
2022-11-29T07:09:52.787Z,9.65
2022-11-29T07:12:21.705Z,9.65
2022-11-29T07:14:50.638Z,9.85
2022-11-29T07:17:25.420Z,9.98
2022-11-29T07:20:03.591Z,9.92
2022-11-29T07:22:46.162Z,9.92
2022-11-29T07:25:23.011Z,9.95
2022-11-29T07:27:58.558Z,9.92
2022-11-29T07:30:29.426Z,9.97
2022-11-29T07:33:03.129Z,10.02
2022-11-29T07:35:35.631Z,10.02
2022-11-29T07:38:11.022Z,10.16
2022-11-29T07:40:44.649Z,10.15
2022-11-29T07:43:22.464Z,9.92
2022-11-29T07:45:52.121Z,9.90
2022-11-29T07:48:20.387Z,9.82
2022-11-29T07:50:50.281Z,9.62
2022-11-29T07:53:20.060Z,9.86
2022-11-29T07:55:49.198Z,9.97
2022-11-29T07:58:18.391Z,9.91
2022-11-29T08:00:47.353Z,9.79
2022-11-29T08:03:15.719Z,9.81
2022-11-29T08:05:47.161Z,10.25
2022-11-29T08:08:17.106Z,10.17
2022-11-29T08:10:45.929Z,10.13
2022-11-29T08:13:14.559Z,10.08
2022-11-29T08:15:45.555Z,10.03
2022-11-29T08:18:13.946Z,10.22
2022-11-29T08:20:42.478Z,10.21
2022-11-29T08:23:12.709Z,10.21
2022-11-29T08:25:42.672Z,10.06
2022-11-29T08:28:11.012Z,10.29
2022-11-29T08:30:39.628Z,10.38
2022-11-29T08:33:08.136Z,10.12
2022-11-29T08:35:36.854Z,10.70
2022-11-29T08:38:05.196Z,10.34
2022-11-29T08:40:33.466Z,10.40
2022-11-29T08:43:03.126Z,10.43
2022-11-29T08:45:31.507Z,10.14
2022-11-29T08:47:59.759Z,10.19
2022-11-29T08:50:27.949Z,10.18
2022-11-29T08:53:14.046Z,10.15
2022-11-29T08:55:43.076Z,10.07
2022-11-29T08:58:14.834Z,10.62
2022-11-29T09:00:45.629Z,10.34
2022-11-29T09:03:31.752Z,10.45
2022-11-29T09:06:00.049Z,10.51
2022-11-29T09:08:28.248Z,10.69
2022-11-29T09:10:56.531Z,10.31
2022-11-29T09:13:26.097Z,10.17
2022-11-29T09:15:54.312Z,10.02
2022-11-29T09:18:22.779Z,10.59
2022-11-29T09:20:51.087Z,10.56
2022-11-29T09:23:19.281Z,10.08
2022-11-29T09:25:49.498Z,10.22
2022-11-29T09:28:17.829Z,9.95
2022-11-29T09:30:47.517Z,10.17
2022-11-29T09:33:15.778Z,10.07
2022-11-29T09:35:44.160Z,9.93
2022-11-29T09:38:13.253Z,10.26
2022-11-29T09:40:44.079Z,10.22
2022-11-29T09:43:22.966Z,10.28
2022-11-29T09:45:57.950Z,10.19
2022-11-29T09:48:44.600Z,10.44
2022-11-29T09:51:19.310Z,10.38
2022-11-29T09:54:04.072Z,10.52
2022-11-29T09:56:35.672Z,10.43
2022-11-29T09:59:05.745Z,10.52
2022-11-29T10:01:39.015Z,10.59
2022-11-29T10:04:12.193Z,10.58
2022-11-29T10:06:43.230Z,10.30
2022-11-29T10:09:16.701Z,10.45
2022-11-29T10:11:53.992Z,10.76
2022-11-29T10:14:24.534Z,10.82
2022-11-29T10:16:59.065Z,10.96
2022-11-29T10:19:32.648Z,11.32
2022-11-29T10:22:05.140Z,11.12
2022-11-29T10:24:34.295Z,11.20
2022-11-29T10:27:03.222Z,11.07
2022-11-29T10:29:31.517Z,11.35
2022-11-29T10:32:10.069Z,10.85
2022-11-29T10:34:38.885Z,10.75
2022-11-29T10:37:10.675Z,11.06
2022-11-29T10:39:42.432Z,11.04
2022-11-29T10:42:36.183Z,10.98
2022-11-29T10:45:06.200Z,10.82
2022-11-29T10:47:35.945Z,10.84
2022-11-29T10:50:04.220Z,10.98
2022-11-29T10:52:32.484Z,10.89
2022-11-29T10:55:01.279Z,10.94
2022-11-29T10:57:29.701Z,10.72
2022-11-29T11:00:04.521Z,10.87
2022-11-29T11:02:33.096Z,10.76
2022-11-29T11:05:02.959Z,10.93
2022-11-29T11:07:35.160Z,10.76
2022-11-29T11:10:06.439Z,10.86
2022-11-29T11:12:36.925Z,10.82
2022-11-29T11:15:17.111Z,11.04
2022-11-29T11:17:58.344Z,11.11
2022-11-29T11:20:29.799Z,11.17
2022-11-29T11:23:00.076Z,11.09
2022-11-29T11:25:30.606Z,10.56
2022-11-29T11:27:59.698Z,10.87
2022-11-29T11:30:29.280Z,11.00
2022-11-29T11:33:15.743Z,10.67
2022-11-29T11:35:45.415Z,11.13
2022-11-29T11:38:17.502Z,11.33
2022-11-29T11:40:46.588Z,11.26
2022-11-29T11:43:20.534Z,11.10
2022-11-29T11:45:53.362Z,11.15
2022-11-29T11:48:21.900Z,11.56
2022-11-29T11:50:54.330Z,11.55
2022-11-29T11:53:24.267Z,11.55
2022-11-29T11:55:59.175Z,11.26
2022-11-29T11:58:28.847Z,11.04
2022-11-29T12:01:04.373Z,11.47
2022-11-29T12:03:38.893Z,11.54
2022-11-29T12:06:27.470Z,11.61
2022-11-29T12:08:59.011Z,11.62
2022-11-29T12:11:28.104Z,11.83
2022-11-29T12:13:58.121Z,11.90
2022-11-29T12:16:30.159Z,11.69
2022-11-29T12:19:01.350Z,11.32
2022-11-29T12:21:36.015Z,11.25
2022-11-29T12:24:13.984Z,11.32
2022-11-29T12:26:57.066Z,11.28
2022-11-29T12:29:28.860Z,10.98
2022-11-29T12:31:59.178Z,11.25
2022-11-29T12:34:42.388Z,10.83
2022-11-29T12:37:17.433Z,11.20
2022-11-29T12:39:58.926Z,11.53
2022-11-29T12:42:47.210Z,11.11
2022-11-29T12:45:32.206Z,11.23
2022-11-29T12:48:08.913Z,10.83
2022-11-29T12:50:43.479Z,11.13
2022-11-29T12:53:27.073Z,11.14
2022-11-29T12:56:07.154Z,11.06
2022-11-29T12:58:46.105Z,11.05
2022-11-29T13:01:21.351Z,10.88
2022-11-29T13:03:57.237Z,10.91
2022-11-29T13:06:30.644Z,11.06
2022-11-29T13:09:12.299Z,10.93
2022-11-29T13:11:43.171Z,10.97
2022-11-29T13:14:41.680Z,10.84
2022-11-29T13:17:05.042Z,10.84
2022-11-29T13:19:37.486Z,10.76
2022-11-29T13:22:12.032Z,10.78
2022-11-29T13:24:44.174Z,10.51
2022-11-29T13:27:18.188Z,10.49
2022-11-29T13:29:47.850Z,10.13
2022-11-29T13:32:30.153Z,10.43
2022-11-29T13:35:01.507Z,10.61
2022-11-29T13:37:35.002Z,10.52
2022-11-29T13:40:19.377Z,10.11
2022-11-29T13:42:51.626Z,10.21
2022-11-29T13:45:24.295Z,10.20
2022-11-29T13:47:55.029Z,10.62
2022-11-29T13:50:40.593Z,10.45
2022-11-29T13:53:15.623Z,10.10
2022-11-29T13:55:50.054Z,10.51
2022-11-29T13:58:34.408Z,10.52
2022-11-29T14:01:04.033Z,10.56
2022-11-29T14:03:36.145Z,10.41
2022-11-29T14:06:18.280Z,10.26
2022-11-29T14:09:19.983Z,10.61
2022-11-29T14:11:52.507Z,10.62
2022-11-29T14:14:26.134Z,10.37
2022-11-29T14:16:56.938Z,10.55
2022-11-29T14:19:33.160Z,10.68
2022-11-29T14:22:22.225Z,10.33
2022-11-29T14:24:58.773Z,10.41
2022-11-29T14:27:57.543Z,10.30
2022-11-29T14:30:52.444Z,10.43
2022-11-29T14:33:39.094Z,10.35
2022-11-29T14:36:40.021Z,10.22
2022-11-29T14:39:25.318Z,10.41
2022-11-29T14:42:01.284Z,10.60
2022-11-29T14:44:32.480Z,10.27
2022-11-29T14:47:03.383Z,10.18
2022-11-29T14:49:33.088Z,10.12
2022-11-29T14:52:21.494Z,10.10
2022-11-29T14:55:01.711Z,10.44
2022-11-29T14:58:15.602Z,10.02
2022-11-29T15:01:08.051Z,9.97
2022-11-29T15:03:48.150Z,10.02
2022-11-29T15:06:24.297Z,9.89
2022-11-29T15:08:57.729Z,9.93
2022-11-29T15:11:36.565Z,10.18
2022-11-29T15:14:07.872Z,10.15
2022-11-29T15:17:01.510Z,10.29
2022-11-29T15:20:11.640Z,10.41
2022-11-29T15:22:47.914Z,10.28
2022-11-29T15:25:18.695Z,10.11
2022-11-29T15:27:54.002Z,10.03
2022-11-29T15:30:29.942Z,10.16
2022-11-29T15:33:00.681Z,10.21
2022-11-29T15:35:29.240Z,10.04
2022-11-29T15:37:58.127Z,10.02
2022-11-29T15:40:33.030Z,10.13
2022-11-29T15:43:05.110Z,10.12
2022-11-29T15:45:34.906Z,9.95
2022-11-29T15:48:17.294Z,10.12
2022-11-29T15:50:50.324Z,10.20
2022-11-29T15:53:22.831Z,10.27
2022-11-29T15:55:52.285Z,9.98
2022-11-29T15:58:20.975Z,10.10
2022-11-29T16:00:51.072Z,9.78
2022-11-29T16:03:25.229Z,10.10
2022-11-29T16:05:58.790Z,10.13
2022-11-29T16:08:27.723Z,9.88
2022-11-29T16:10:56.107Z,10.05
2022-11-29T16:13:35.962Z,10.06
2022-11-29T16:16:13.263Z,9.78
2022-11-29T16:18:44.333Z,9.95
2022-11-29T16:21:26.329Z,9.91
2022-11-29T16:23:54.900Z,10.07
2022-11-29T16:26:25.117Z,10.05
2022-11-29T16:28:56.417Z,10.32
2022-11-29T16:31:31.132Z,10.20
2022-11-29T16:34:07.661Z,9.85
2022-11-29T16:36:36.430Z,9.92
2022-11-29T16:39:07.301Z,9.70
2022-11-29T16:41:36.761Z,9.54
2022-11-29T16:44:06.196Z,9.65
2022-11-29T16:46:37.534Z,9.81
2022-11-29T16:49:37.295Z,9.86
2022-11-29T16:52:24.038Z,9.50
2022-11-29T16:54:52.448Z,9.52
2022-11-29T16:57:20.771Z,9.69
2022-11-29T16:59:49.331Z,9.62
2022-11-29T17:02:17.891Z,9.90
2022-11-29T17:04:47.893Z,9.55
2022-11-29T17:07:19.202Z,9.66
2022-11-29T17:09:47.653Z,9.35
2022-11-29T17:12:16.542Z,9.52
2022-11-29T17:14:45.269Z,9.41
2022-11-29T17:17:14.942Z,9.65
2022-11-29T17:19:43.152Z,9.62
2022-11-29T17:22:13.341Z,9.56
2022-11-29T17:24:46.409Z,9.74
2022-11-29T17:27:16.204Z,9.85
2022-11-29T17:29:44.446Z,9.52
2022-11-29T17:32:12.724Z,9.59
2022-11-29T17:34:41.062Z,9.55
2022-11-29T17:37:09.266Z,9.65
2022-11-29T17:39:38.911Z,9.51
2022-11-29T17:42:07.140Z,9.84
2022-11-29T17:44:35.692Z,9.54
2022-11-29T17:47:03.930Z,9.38
2022-11-29T17:49:32.133Z,9.40
2022-11-29T17:52:00.353Z,9.68
2022-11-29T17:54:29.430Z,9.70
2022-11-29T17:56:58.994Z,9.09
2022-11-29T17:59:27.263Z,9.35
2022-11-29T18:01:55.615Z,9.65
2022-11-29T18:04:23.924Z,9.60
2022-11-29T18:06:52.346Z,9.39
2022-11-29T18:09:20.675Z,9.78
2022-11-29T18:11:50.611Z,9.41
2022-11-29T18:14:22.768Z,9.37
2022-11-29T18:16:51.461Z,9.50
2022-11-29T18:19:21.021Z,9.16
2022-11-29T18:21:49.999Z,9.39
2022-11-29T18:24:18.702Z,9.22
2022-11-29T18:26:47.143Z,9.41
2022-11-29T18:29:15.629Z,9.40
2022-11-29T18:31:46.006Z,9.60
2022-11-29T18:34:15.272Z,9.63
2022-11-29T18:36:45.109Z,9.55
2022-11-29T18:39:15.058Z,9.31
2022-11-29T18:41:44.523Z,9.15
2022-11-29T18:44:14.764Z,9.36
2022-11-29T18:46:46.222Z,9.40
2022-11-29T18:49:15.800Z,9.44
2022-11-29T18:51:45.773Z,9.44
2022-11-29T18:54:14.832Z,9.24
2022-11-29T18:56:43.736Z,9.35
2022-11-29T18:59:14.609Z,9.30
2022-11-29T19:01:43.554Z,9.20
2022-11-29T19:04:14.642Z,9.08
2022-11-29T19:06:43.905Z,9.06
2022-11-29T19:09:14.678Z,9.15
2022-11-29T19:11:43.089Z,9.05
2022-11-29T19:14:12.812Z,8.92
2022-11-29T19:16:43.315Z,9.00
2022-11-29T19:19:13.005Z,8.79
2022-11-29T19:21:41.671Z,8.60
2022-11-29T19:24:15.011Z,8.87
2022-11-29T19:26:44.741Z,8.09
2022-11-29T19:29:13.817Z,8.53
2022-11-29T19:31:42.628Z,8.20
2022-11-29T19:34:12.731Z,8.61
2022-11-29T19:36:43.302Z,8.34
2022-11-29T19:39:13.551Z,8.23
2022-11-29T19:41:42.840Z,8.64
2022-11-29T19:44:11.767Z,8.59
2022-11-29T19:46:41.903Z,8.39
2022-11-29T19:49:11.081Z,8.87
2022-11-29T19:51:40.645Z,8.53
2022-11-29T19:54:10.381Z,8.09
2022-11-29T19:56:39.279Z,8.24
2022-11-29T19:59:08.604Z,8.36
2022-11-29T20:01:41.289Z,8.20
2022-11-29T20:04:11.448Z,8.21
2022-11-29T20:06:41.736Z,8.23
2022-11-29T20:09:10.627Z,8.25
2022-11-29T20:11:38.902Z,8.42
2022-11-29T20:14:08.148Z,8.12
2022-11-29T20:16:38.066Z,8.25
2022-11-29T20:19:09.967Z,8.18
2022-11-29T20:21:43.968Z,8.11
2022-11-29T20:24:14.213Z,8.07
2022-11-29T20:26:43.951Z,8.04
2022-11-29T20:29:13.277Z,8.01
2022-11-29T20:31:49.031Z,7.89
2022-11-29T20:34:18.885Z,8.01
2022-11-29T20:37:06.727Z,7.86
2022-11-29T20:39:40.069Z,7.82
2022-11-29T20:42:34.416Z,7.78
2022-11-29T20:45:04.938Z,7.70
2022-11-29T20:47:35.594Z,7.83
2022-11-29T20:50:03.794Z,7.82
2022-11-29T20:52:39.271Z,7.71
2022-11-29T20:55:08.209Z,7.75
2022-11-29T20:57:38.255Z,7.64
2022-11-29T21:00:08.177Z,7.63
2022-11-29T21:02:36.439Z,7.90
2022-11-29T21:05:05.469Z,7.92
2022-11-29T21:07:35.181Z,7.82
2022-11-29T21:10:03.531Z,7.70
2022-11-29T21:12:32.681Z,7.88
2022-11-29T21:15:01.416Z,7.86
2022-11-29T21:17:33.679Z,7.89
2022-11-29T21:20:03.152Z,7.88
2022-11-29T21:22:39.883Z,8.08
2022-11-29T21:25:15.302Z,7.61
2022-11-29T21:27:44.254Z,7.63
2022-11-29T21:30:18.679Z,7.61
2022-11-29T21:32:47.983Z,7.73
2022-11-29T21:35:16.970Z,7.68
2022-11-29T21:37:46.865Z,7.85
2022-11-29T21:40:16.968Z,7.71
2022-11-29T21:42:45.299Z,7.51
2022-11-29T21:45:15.802Z,7.94
2022-11-29T21:47:44.679Z,7.19
2022-11-29T21:50:13.663Z,7.69
2022-11-29T21:52:41.973Z,7.42
2022-11-29T21:55:13.721Z,7.59
2022-11-29T21:57:41.948Z,7.45
2022-11-29T22:00:10.912Z,7.74
2022-11-29T22:02:39.366Z,7.78
2022-11-29T22:05:09.602Z,7.97
2022-11-29T22:07:37.925Z,7.62
2022-11-29T22:10:13.098Z,7.89
2022-11-29T22:12:51.987Z,8.06
2022-11-29T22:15:24.802Z,7.79
2022-11-29T22:17:53.445Z,7.74
2022-11-29T22:20:21.705Z,8.08
2022-11-29T22:22:50.138Z,8.38
2022-11-29T22:25:19.610Z,8.13
2022-11-29T22:27:51.571Z,7.82
2022-11-29T22:30:20.032Z,8.03
2022-11-29T22:32:48.287Z,7.85
2022-11-29T22:35:16.799Z,7.70
2022-11-29T22:37:45.144Z,7.83
2022-11-29T22:40:13.912Z,7.93
2022-11-29T22:42:43.276Z,7.84
2022-11-29T22:45:13.103Z,8.08
2022-11-29T22:47:41.346Z,8.08
2022-11-29T22:50:11.118Z,8.11
2022-11-29T22:52:39.371Z,8.19
2022-11-29T22:55:08.138Z,8.00
2022-11-29T22:57:36.534Z,8.08
2022-11-29T23:00:06.170Z,8.04
2022-11-29T23:02:35.809Z,8.07
2022-11-29T23:05:04.116Z,8.30
2022-11-29T23:07:32.431Z,8.50
2022-11-29T23:10:00.697Z,8.68
2022-11-29T23:12:29.159Z,8.17
2022-11-29T23:14:57.728Z,8.18
2022-11-29T23:17:26.142Z,8.39
2022-11-29T23:19:55.712Z,8.42
2022-11-29T23:22:23.911Z,8.21
2022-11-29T23:24:52.100Z,7.71
2022-11-29T23:27:20.430Z,7.51
2022-11-29T23:29:48.736Z,7.68
2022-11-29T23:32:16.958Z,7.47
2022-11-29T23:34:45.618Z,7.53
2022-11-29T23:37:15.303Z,7.72
2022-11-29T23:39:43.519Z,7.55
2022-11-29T23:42:11.766Z,7.60
2022-11-29T23:44:39.975Z,7.35
2022-11-29T23:47:08.190Z,7.58
2022-11-29T23:49:39.866Z,7.34
2022-11-29T23:52:08.190Z,7.04
2022-11-29T23:54:37.765Z,7.10
2022-11-29T23:57:06.076Z,7.29
2022-11-29T23:59:34.350Z,7.57
